createdAt,value
2022-07-25T00:03:19.168Z,30.4
2022-07-25T00:09:08.105Z,30.4
2022-07-25T00:14:45.325Z,30.3
2022-07-25T00:20:24.301Z,30.3
2022-07-25T00:25:59.998Z,30.1
2022-07-25T00:31:43.244Z,30.1
2022-07-25T00:37:20.030Z,30.1
2022-07-25T00:42:59.830Z,30.1
2022-07-25T00:48:27.588Z,30
2022-07-25T00:53:50.992Z,30
2022-07-25T00:59:29.053Z,29.9
2022-07-25T01:05:08.560Z,29.9
2022-07-25T01:10:48.724Z,29.9
2022-07-25T01:16:12.471Z,29.8
2022-07-25T01:21:33.901Z,29.8
2022-07-25T01:26:55.498Z,29.8
2022-07-25T01:32:44.716Z,29.8
2022-07-25T01:38:18.672Z,29.9
2022-07-25T01:43:57.957Z,29.8
2022-07-25T01:49:36.040Z,29.8
2022-07-25T01:55:22.525Z,29.8
2022-07-25T02:01:17.039Z,29.8
2022-07-25T02:06:56.344Z,29.8
2022-07-25T02:12:34.432Z,29.8
2022-07-25T02:18:14.744Z,29.8
2022-07-25T02:23:51.288Z,29.8
2022-07-25T02:29:28.475Z,29.8
2022-07-25T02:35:05.264Z,29.8
2022-07-25T02:40:50.103Z,29.8
2022-07-25T02:46:27.941Z,29.8
2022-07-25T02:52:06.092Z,29.8
2022-07-25T02:58:17.949Z,29.8
2022-07-25T03:03:56.024Z,29.8
2022-07-25T03:09:19.753Z,29.8
2022-07-25T03:14:59.319Z,29.7
2022-07-25T03:20:36.496Z,29.8
2022-07-25T03:26:28.388Z,29.7
2022-07-25T03:32:04.741Z,29.6
2022-07-25T03:37:40.774Z,29.5
2022-07-25T03:43:25.106Z,29.3
2022-07-25T03:49:05.323Z,29.3
2022-07-25T03:54:07.315Z,29.2
2022-07-25T03:59:51.294Z,29.1
2022-07-25T04:05:29.766Z,29.1
2022-07-25T04:11:09.422Z,29
2022-07-25T04:16:56.445Z,28.9
2022-07-25T04:22:46.866Z,28.9
2022-07-25T04:28:24.399Z,28.8
2022-07-25T04:33:52.888Z,28.8
2022-07-25T04:39:35.029Z,28.7
2022-07-25T04:45:13.495Z,28.6
2022-07-25T04:50:41.028Z,28.6
2022-07-25T04:56:18.060Z,28.6
2022-07-25T05:01:57.630Z,28.5
2022-07-25T05:07:23.792Z,28.5
2022-07-25T05:12:49.548Z,28.4
2022-07-25T05:18:27.395Z,28.4
2022-07-25T05:24:13.318Z,28.4
2022-07-25T05:29:35.402Z,28.4
2022-07-25T05:34:58.312Z,28.3
2022-07-25T05:40:23.301Z,28.3
2022-07-25T05:46:00.828Z,28.3
2022-07-25T05:51:38.652Z,28.3
2022-07-25T05:57:18.306Z,28.3
2022-07-25T06:03:02.314Z,28.3
2022-07-25T06:08:42.182Z,28.2
2022-07-25T06:14:35.393Z,28.2
2022-07-25T06:20:23.886Z,28.2
2022-07-25T06:26:06.693Z,28.2
2022-07-25T06:32:04.461Z,28.2
2022-07-25T06:37:41.474Z,32.1
2022-07-25T06:43:23.469Z,49.3
2022-07-25T06:49:01.766Z,46.7
2022-07-25T06:54:26.197Z,44
2022-07-25T07:00:07.338Z,49.2
2022-07-25T07:05:51.353Z,46.4
2022-07-25T07:11:29.711Z,50.8
2022-07-25T07:17:12.740Z,46.6
2022-07-25T07:22:55.868Z,45.8
2022-07-25T07:29:04.237Z,49.3
2022-07-25T07:35:21.082Z,48.1
2022-07-25T07:41:07.734Z,49.5
2022-07-25T07:46:45.273Z,50.3
2022-07-25T07:51:56.177Z,51
2022-07-25T07:57:33.812Z,51.8
2022-07-25T08:03:10.892Z,52.8
2022-07-25T15:18:47.124Z,38.1
2022-07-25T15:25:17.099Z,37.6
2022-07-25T15:31:25.697Z,37.1
2022-07-25T15:36:50.815Z,36.8
2022-07-25T15:42:31.105Z,36.5
2022-07-25T15:48:41.561Z,36.2
2022-07-25T15:54:24.005Z,35.9
2022-07-25T15:59:48.982Z,35.6
2022-07-25T16:05:34.667Z,35.4
2022-07-25T16:11:15.239Z,35.2
2022-07-25T16:16:58.767Z,34.9
2022-07-25T16:22:38.423Z,34.8
2022-07-25T16:28:19.732Z,34.6
2022-07-25T16:34:04.644Z,34.4
2022-07-25T16:39:49.646Z,34.3
2022-07-25T16:45:33.772Z,34.1
2022-07-25T16:51:18.184Z,34.1
2022-07-25T16:57:09.375Z,34
2022-07-25T17:02:50.901Z,34.1
2022-07-25T17:08:32.987Z,34
2022-07-25T17:14:14.510Z,34
2022-07-25T17:19:59.525Z,34
2022-07-25T17:25:39.638Z,33.9
2022-07-25T17:31:20.315Z,33.8
2022-07-25T17:37:04.172Z,33.7
2022-07-25T17:42:36.636Z,33.6
2022-07-25T17:48:16.961Z,33.6
2022-07-25T17:53:59.007Z,33.6
2022-07-25T17:59:40.544Z,33.6
2022-07-25T18:05:27.825Z,33.6
2022-07-25T18:11:06.258Z,33.6
2022-07-25T18:16:47.225Z,33.6
2022-07-25T18:22:27.358Z,33.6
2022-07-25T18:28:11.708Z,33.6
2022-07-25T18:33:55.801Z,33.6
2022-07-25T18:39:35.567Z,33.6
2022-07-25T18:45:53.743Z,33.8
2022-07-25T18:51:39.731Z,34.9
2022-07-25T18:57:20.572Z,36.2
2022-07-25T19:03:00.887Z,36.8
2022-07-25T19:08:41.245Z,37
2022-07-25T19:14:52.846Z,36.9
2022-07-25T19:20:33.637Z,36.6
2022-07-25T19:26:14.486Z,36.4
